createdAt,value
2022-08-31T00:03:40.536Z,19.65
2022-08-31T00:08:35.292Z,19.57
2022-08-31T00:13:29.963Z,19.46
2022-08-31T00:23:29.384Z,19.47
2022-08-31T00:28:24.635Z,19.48
2022-08-31T00:38:24.891Z,19.39
2022-08-31T00:43:47.805Z,19.39
2022-08-31T00:48:57.612Z,19.29
2022-08-31T00:53:50.930Z,19.24
2022-08-31T01:09:03.319Z,19.11
2022-08-31T01:34:33.690Z,19.10
2022-08-31T01:54:44.208Z,18.98
2022-08-31T01:59:36.179Z,19.06
2022-08-31T02:04:29.182Z,19.04
2022-08-31T02:09:22.616Z,19.08
2022-08-31T02:19:22.017Z,19.27
2022-08-31T02:44:38.148Z,19.03
2022-08-31T02:54:40.512Z,19.13
2022-08-31T02:59:32.220Z,19.18
2022-08-31T03:04:24.141Z,19.22
2022-08-31T03:09:16.463Z,19.19
2022-08-31T03:14:08.205Z,19.13
2022-08-31T03:18:59.944Z,19.03
2022-08-31T03:23:51.712Z,18.85
2022-08-31T03:33:50.471Z,18.43
2022-08-31T03:38:42.864Z,18.31
2022-08-31T03:43:37.649Z,18.25
2022-08-31T03:48:29.364Z,18.24
2022-08-31T03:58:30.913Z,18.15
2022-08-31T04:03:24.768Z,17.89
2022-08-31T04:08:23.391Z,17.61
2022-08-31T04:18:21.848Z,17.31
2022-08-31T04:23:23.195Z,17.30
2022-08-31T04:28:15.594Z,17.31
2022-08-31T04:33:08.883Z,17.26
2022-08-31T04:38:01.066Z,17.29
2022-08-31T04:42:54.107Z,17.30
2022-08-31T04:47:46.717Z,17.18
2022-08-31T04:52:39.924Z,17.31
2022-08-31T04:57:39.218Z,17.26
2022-08-31T05:12:45.043Z,17.27
2022-08-31T05:22:46.630Z,17.41
2022-08-31T05:27:40.889Z,17.41
2022-08-31T05:32:34.116Z,17.41
2022-08-31T05:37:26.959Z,17.47
2022-08-31T05:42:20.400Z,17.49
2022-08-31T05:47:13.071Z,17.46
2022-08-31T05:52:08.705Z,17.45
2022-08-31T05:57:04.573Z,17.47
2022-08-31T06:01:58.531Z,17.49
2022-08-31T06:17:09.787Z,17.73
2022-08-31T06:22:03.057Z,17.75
2022-08-31T06:26:59.904Z,17.87
2022-08-31T06:31:52.239Z,17.91
2022-08-31T07:07:28.681Z,18.41
2022-08-31T07:12:22.305Z,18.81
2022-08-31T07:17:14.413Z,19.39
2022-08-31T07:22:11.422Z,19.20
2022-08-31T07:27:14.503Z,19.02
2022-08-31T07:32:12.725Z,18.50
2022-08-31T07:37:27.211Z,18.91
2022-08-31T07:42:25.307Z,18.92
2022-08-31T07:47:19.948Z,18.97
2022-08-31T07:52:21.886Z,18.91
2022-08-31T07:57:14.275Z,18.85
2022-08-31T08:02:07.375Z,19.33
2022-08-31T08:07:00.709Z,19.53
2022-08-31T08:12:01.265Z,19.25
2022-08-31T08:16:55.588Z,18.99
2022-08-31T08:21:48.340Z,18.98
2022-08-31T08:26:54.100Z,18.99
2022-08-31T14:02:37.075Z,23.61
2022-08-31T14:07:45.740Z,23.23
2022-08-31T14:12:54.724Z,23.12
2022-08-31T14:23:29.461Z,22.74
2022-08-31T14:28:36.162Z,22.24
2022-08-31T14:33:27.938Z,22.42
2022-08-31T14:38:19.855Z,22.37
2022-08-31T14:43:17.422Z,22.17
2022-08-31T14:48:10.862Z,22.33
2022-08-31T14:53:02.679Z,22.20
2022-08-31T14:58:05.031Z,21.85
2022-08-31T15:02:56.953Z,22.02
2022-08-31T15:07:51.033Z,22.10
2022-08-31T15:12:42.873Z,22.23
2022-08-31T15:17:35.938Z,22.55
2022-08-31T15:22:27.946Z,22.75
2022-08-31T15:27:23.316Z,22.38
2022-08-31T15:32:16.803Z,22.15
2022-08-31T15:37:09.367Z,22.43
2022-08-31T15:42:08.928Z,22.40
2022-08-31T15:47:19.236Z,22.43
2022-08-31T15:52:12.016Z,22.27
2022-08-31T15:57:05.998Z,21.84
2022-08-31T16:01:58.877Z,22.11
2022-08-31T16:06:52.529Z,22.21
2022-08-31T16:11:44.418Z,22.01
2022-08-31T16:16:40.995Z,22.08
2022-08-31T16:21:37.560Z,22.25
2022-08-31T17:07:56.486Z,21.43
2022-08-31T17:28:15.446Z,20.92
2022-08-31T19:11:51.414Z,18.28
2022-08-31T20:08:19.468Z,18.06
2022-08-31T22:01:09.203Z,16.20
2022-08-31T22:32:01.015Z,16.14
2022-08-31T22:42:04.066Z,16.02
2022-08-31T23:02:18.485Z,15.92
2022-08-31T23:12:18.317Z,15.83
2022-08-31T23:17:10.481Z,15.94
2022-08-31T23:22:07.465Z,15.99
2022-08-31T23:32:20.297Z,15.66
2022-08-31T23:47:31.208Z,15.45
2022-08-31T23:52:26.992Z,15.43
